Time;durP1;ratioP1;P1;durP2;ratioP2;P2;SDS_P1;SDS_P2;PMS_P1;PMS_P2;Temp;Humidity;BMP_temperature;BMP_pressure;BME280_temperature;BME280_humidity;BME280_pressure;Samples;Min_cycle;Max_cycle;Signal;HPM_P1;HPM_P2
2023/02/18 00:01:22;;;;;;;36.22;28.13;;;6.70;99.90;;;;;;4966773;28;20649;-68
2023/02/18 00:03:49;;;;;;;32.88;25.23;;;6.70;99.90;;;;;;4970049;28;20305;-68
2023/02/18 00:06:18;;;;;;;34.75;27.85;;;6.70;99.90;;;;;;4971278;28;20304;-68
2023/02/18 00:08:46;;;;;;;34.28;26.88;;;6.60;99.90;;;;;;4968093;28;20316;-68
2023/02/18 00:11:14;;;;;;;36.40;29.25;;;6.60;99.90;;;;;;4968859;28;20285;-68
2023/02/18 00:13:43;;;;;;;38.33;30.70;;;6.60;99.90;;;;;;4970609;28;20777;-67
2023/02/18 00:16:12;;;;;;;36.88;30.38;;;6.60;99.90;;;;;;4969129;28;20324;-68
2023/02/18 00:18:40;;;;;;;34.35;28.70;;;6.60;99.90;;;;;;4969047;28;20308;-69
2023/02/18 00:21:09;;;;;;;37.15;29.98;;;6.60;99.90;;;;;;4970882;28;20285;-68
2023/02/18 00:23:36;;;;;;;33.45;28.25;;;6.60;99.90;;;;;;4973915;28;20324;-69
2023/02/18 00:26:07;;;;;;;34.72;28.75;;;6.60;99.90;;;;;;4970033;28;20298;-69
2023/02/18 00:28:34;;;;;;;39.90;32.30;;;6.60;99.90;;;;;;4968803;28;20320;-69
2023/02/18 00:31:08;;;;;;;38.97;29.85;;;6.50;99.90;;;;;;4964837;28;20289;-68
2023/02/18 00:33:35;;;;;;;41.55;31.77;;;6.50;99.90;;;;;;4969431;28;20874;-69
2023/02/18 00:36:03;;;;;;;39.67;30.85;;;6.50;99.90;;;;;;4970430;28;20722;-68
2023/02/18 00:38:31;;;;;;;39.70;31.05;;;6.50;99.90;;;;;;4974700;28;20248;-69
2023/02/18 00:40:58;;;;;;;41.53;33.67;;;6.40;99.90;;;;;;4972054;28;20297;-69
2023/02/18 00:43:26;;;;;;;41.92;32.50;;;6.40;99.90;;;;;;4969697;28;20655;-70
2023/02/18 00:45:53;;;;;;;37.85;30.13;;;6.40;99.90;;;;;;4971408;28;20288;-68
2023/02/18 00:48:23;;;;;;;42.92;34.17;;;6.40;99.90;;;;;;4972458;28;20316;-69
2023/02/18 00:50:50;;;;;;;36.42;30.13;;;6.30;99.90;;;;;;4968458;28;20289;-68
2023/02/18 00:53:17;;;;;;;42.58;32.08;;;6.30;99.90;;;;;;4969224;28;20952;-68
2023/02/18 00:55:46;;;;;;;37.55;31.17;;;6.30;99.90;;;;;;4967196;28;20230;-69
2023/02/18 00:58:13;;;;;;;36.00;28.65;;;6.30;99.90;;;;;;4970535;28;20260;-69
2023/02/18 01:00:40;;;;;;;41.25;32.55;;;6.30;99.90;;;;;;4967856;28;20288;-68
2023/02/18 01:03:08;;;;;;;41.72;31.50;;;6.30;99.90;;;;;;4967887;28;20204;-69
2023/02/18 01:05:36;;;;;;;38.47;31.33;;;6.30;99.90;;;;;;4966323;28;20253;-68
2023/02/18 01:08:05;;;;;;;37.97;30.35;;;6.20;99.90;;;;;;4965586;28;20305;-69
2023/02/18 01:10:32;;;;;;;40.78;31.55;;;6.20;99.90;;;;;;4968545;28;20646;-68
2023/02/18 01:12:59;;;;;;;36.92;30.10;;;6.20;99.90;;;;;;4969108;28;20207;-69
2023/02/18 01:15:26;;;;;;;38.03;30.98;;;6.20;99.90;;;;;;4969177;28;20293;-68
2023/02/18 01:17:54;;;;;;;40.05;31.85;;;6.20;99.90;;;;;;4970381;28;20297;-70
2023/02/18 01:20:21;;;;;;;41.60;32.10;;;6.20;99.90;;;;;;4969763;28;20288;-70
2023/02/18 01:22:50;;;;;;;41.40;31.90;;;6.20;99.90;;;;;;4964159;28;20202;-68
2023/02/18 01:25:17;;;;;;;44.25;35.10;;;6.10;99.90;;;;;;4969364;28;20229;-68
2023/02/18 01:27:44;;;;;;;44.50;33.92;;;6.10;99.90;;;;;;4969455;28;20292;-68
2023/02/18 01:30:16;;;;;;;40.97;32.05;;;6.10;99.90;;;;;;4967808;28;20249;-68
2023/02/18 01:32:43;;;;;;;40.83;32.38;;;6.10;99.90;;;;;;4965796;28;20283;-70
2023/02/18 01:35:14;;;;;;;46.85;35.80;;;6.10;99.90;;;;;;4971139;28;20308;-69
2023/02/18 01:37:41;;;;;;;43.40;35.20;;;6.00;99.90;;;;;;4966462;28;20574;-69
2023/02/18 01:40:13;;;;;;;41.25;31.95;;;6.00;99.90;;;;;;4969987;28;20789;-68
2023/02/18 01:42:40;;;;;;;39.03;31.52;;;6.00;99.90;;;;;;4967630;28;20209;-69
2023/02/18 01:45:56;;;;;;;39.53;31.35;;;6.10;99.90;;;;;;4966739;28;20368;-69
2023/02/18 01:48:27;;;;;;;42.53;31.67;;;6.10;99.90;;;;;;4967124;28;20311;-69
2023/02/18 01:50:59;;;;;;;39.53;30.88;;;6.10;99.90;;;;;;4970416;28;20238;-69
2023/02/18 01:53:30;;;;;;;39.95;30.80;;;6.00;99.90;;;;;;4968929;28;20660;-69
2023/02/18 01:56:00;;;;;;;36.78;29.55;;;6.00;99.90;;;;;;4968757;28;20575;-69
2023/02/18 01:58:28;;;;;;;36.85;29.52;;;6.10;99.90;;;;;;4970705;28;20252;-69
2023/02/18 02:00:55;;;;;;;35.45;28.38;;;6.10;99.90;;;;;;4968473;28;20281;-69
2023/02/18 02:03:22;;;;;;;38.95;30.58;;;6.10;99.90;;;;;;4966485;28;20296;-68
2023/02/18 02:05:49;;;;;;;37.45;29.27;;;6.20;99.90;;;;;;4962165;28;20230;-67
2023/02/18 02:08:16;;;;;;;38.72;30.45;;;6.20;99.90;;;;;;4971354;28;20319;-69
2023/02/18 02:11:05;;;;;;;40.63;31.42;;;6.20;99.90;;;;;;4968892;28;20328;-69
2023/02/18 02:13:50;;;;;;;37.13;28.38;;;6.10;99.90;;;;;;4968947;28;20325;-69
2023/02/18 02:16:25;;;;;;;38.85;30.45;;;6.10;99.90;;;;;;4970750;28;20236;-70
2023/02/18 02:19:15;;;;;;;35.83;27.88;;;6.00;99.90;;;;;;4966862;28;20221;-70
2023/02/18 02:22:26;;;;;;;35.75;28.55;;;5.90;99.90;;;;;;4966917;28;20289;-70
2023/02/18 02:25:08;;;;;;;37.35;30.27;;;5.80;99.90;;;;;;4964695;28;20778;-69
2023/02/18 02:28:07;;;;;;;43.97;33.95;;;5.80;99.90;;;;;;4968670;28;20284;-70
2023/02/18 02:31:22;;;;;;;41.22;33.20;;;5.80;99.90;;;;;;4960697;28;20348;-69
2023/02/18 02:34:17;;;;;;;38.67;30.98;;;5.70;99.90;;;;;;4928882;29;20234;-69
2023/02/18 02:36:52;;;;;;;42.35;32.92;;;5.70;99.90;;;;;;4968421;28;20754;-72
2023/02/18 02:39:30;;;;;;;38.25;30.65;;;5.70;99.90;;;;;;4965543;28;20252;-69
2023/02/18 02:42:09;;;;;;;38.78;30.60;;;5.70;99.90;;;;;;4967095;28;20645;-70
2023/02/18 02:44:42;;;;;;;41.97;32.38;;;5.70;99.90;;;;;;4961582;28;20228;-70
2023/02/18 02:47:14;;;;;;;42.35;31.65;;;5.70;99.90;;;;;;4969485;28;20225;-68
2023/02/18 02:49:48;;;;;;;43.00;32.38;;;5.70;99.90;;;;;;4965697;28;20257;-70
2023/02/18 02:52:22;;;;;;;41.17;32.15;;;5.70;99.90;;;;;;4966487;28;20197;-69
2023/02/18 02:54:49;;;;;;;43.15;33.25;;;5.70;99.90;;;;;;4965432;28;20308;-70
2023/02/18 02:57:41;;;;;;;40.25;31.17;;;5.70;99.90;;;;;;4969703;28;20285;-68
2023/02/18 03:00:11;;;;;;;40.67;31.65;;;5.70;99.90;;;;;;4968099;28;20313;-69
2023/02/18 03:02:51;;;;;;;42.08;31.42;;;5.70;99.90;;;;;;4967597;28;20295;-69
2023/02/18 03:05:31;;;;;;;43.88;33.40;;;5.70;99.90;;;;;;4970034;28;20348;-69
2023/02/18 03:08:12;;;;;;;42.58;32.17;;;5.60;99.90;;;;;;4965993;28;20309;-71
2023/02/18 03:10:58;;;;;;;40.90;31.00;;;5.60;99.90;;;;;;4963220;28;20204;-69
2023/02/18 03:13:41;;;;;;;41.50;32.13;;;5.60;99.90;;;;;;4967797;28;20308;-70
2023/02/18 03:16:22;;;;;;;42.33;32.33;;;5.60;99.90;;;;;;4969488;28;20292;-69
2023/02/18 03:18:57;;;;;;;47.60;35.22;;;5.60;99.90;;;;;;4964147;28;20734;-69
2023/02/18 03:21:29;;;;;;;42.47;33.28;;;5.60;99.90;;;;;;4977458;28;20228;-69
2023/02/18 03:24:01;;;;;;;44.97;35.05;;;5.60;99.90;;;;;;4979570;28;20784;-71
2023/02/18 03:26:31;;;;;;;43.95;33.45;;;5.60;99.90;;;;;;4973898;28;20238;-68
2023/02/18 03:29:02;;;;;;;42.35;34.05;;;5.60;99.90;;;;;;4971261;28;20316;-70
2023/02/18 03:31:31;;;;;;;43.58;34.35;;;5.50;99.90;;;;;;4968985;28;20280;-69
2023/02/18 03:34:04;;;;;;;44.25;33.75;;;5.50;99.90;;;;;;4971574;28;20740;-68
2023/02/18 03:36:34;;;;;;;43.30;34.20;;;5.50;99.90;;;;;;4971057;28;20397;-71
2023/02/18 03:39:05;;;;;;;44.47;33.47;;;5.50;99.90;;;;;;4977654;28;20312;-70
2023/02/18 03:41:33;;;;;;;44.28;33.42;;;5.50;99.90;;;;;;4971613;28;21388;-70
2023/02/18 03:44:02;;;;;;;40.38;30.50;;;5.40;99.90;;;;;;4971715;28;20657;-72
2023/02/18 03:46:30;;;;;;;37.88;29.58;;;5.40;99.90;;;;;;4974236;28;20715;-70
2023/02/18 03:48:57;;;;;;;37.25;30.00;;;5.40;99.90;;;;;;4979426;28;20639;-69
2023/02/18 03:51:24;;;;;;;40.38;30.05;;;5.40;99.90;;;;;;4971938;28;20285;-70
2023/02/18 03:53:52;;;;;;;41.40;31.20;;;5.40;99.90;;;;;;4972500;28;20261;-72
2023/02/18 03:56:20;;;;;;;40.28;30.83;;;5.40;99.90;;;;;;4968881;28;20208;-70
2023/02/18 03:58:47;;;;;;;39.00;30.95;;;5.40;99.90;;;;;;4973042;28;20348;-71
2023/02/18 04:01:14;;;;;;;41.53;32.25;;;5.40;99.90;;;;;;4966725;28;20202;-70
2023/02/18 04:03:41;;;;;;;40.78;30.63;;;5.40;99.90;;;;;;4965748;28;20319;-71
2023/02/18 04:06:08;;;;;;;39.22;29.80;;;5.40;99.90;;;;;;4968193;28;20617;-69
2023/02/18 04:08:36;;;;;;;38.60;30.55;;;5.50;99.90;;;;;;4971711;28;20308;-68
2023/02/18 04:11:05;;;;;;;39.80;30.75;;;5.40;99.90;;;;;;4974103;28;20229;-68
2023/02/18 04:13:32;;;;;;;41.08;31.35;;;5.50;99.90;;;;;;4970990;28;20348;-67
2023/02/18 04:15:59;;;;;;;36.88;29.20;;;5.40;99.90;;;;;;4971272;28;20616;-68
2023/02/18 04:18:26;;;;;;;38.05;29.75;;;5.40;99.90;;;;;;4970454;28;20308;-68
2023/02/18 04:20:53;;;;;;;38.42;30.70;;;5.40;99.90;;;;;;4969955;28;20194;-69
2023/02/18 04:23:20;;;;;;;39.30;30.88;;;5.40;99.90;;;;;;4971314;28;21208;-69
2023/02/18 04:25:47;;;;;;;36.75;29.55;;;5.40;99.90;;;;;;4967978;28;20280;-67
2023/02/18 04:28:16;;;;;;;39.88;29.10;;;5.40;99.90;;;;;;4969015;28;20305;-68
2023/02/18 04:30:44;;;;;;;37.08;29.10;;;5.40;99.90;;;;;;4970915;28;20313;-67
2023/02/18 04:33:11;;;;;;;36.97;28.63;;;5.40;99.90;;;;;;4970606;28;21155;-67
2023/02/18 04:35:40;;;;;;;37.42;29.60;;;5.40;99.90;;;;;;4973519;28;20293;-69
2023/02/18 04:38:08;;;;;;;39.22;29.45;;;5.40;99.90;;;;;;4971556;28;20230;-68
2023/02/18 04:40:35;;;;;;;34.95;28.75;;;5.40;99.90;;;;;;4972024;28;20280;-69
2023/02/18 04:43:02;;;;;;;45.67;36.65;;;5.40;99.90;;;;;;4967272;28;20288;-67
2023/02/18 04:45:31;;;;;;;40.88;29.60;;;5.30;99.90;;;;;;4973507;28;20293;-68
2023/02/18 04:47:58;;;;;;;37.75;29.67;;;5.30;99.90;;;;;;4967976;28;20771;-70
2023/02/18 04:50:25;;;;;;;41.20;31.30;;;5.30;99.90;;;;;;4961483;28;20654;-69
2023/02/18 04:52:52;;;;;;;39.75;30.63;;;5.30;99.90;;;;;;4968744;28;20619;-70
2023/02/18 04:55:19;;;;;;;38.22;29.58;;;5.30;99.90;;;;;;4970823;28;20284;-70
2023/02/18 04:57:46;;;;;;;39.90;30.38;;;5.20;99.90;;;;;;4971198;28;20292;-69
2023/02/18 05:00:16;;;;;;;39.25;29.40;;;5.20;99.90;;;;;;4969373;28;20293;-68
2023/02/18 05:02:45;;;;;;;50.88;37.72;;;5.10;99.90;;;;;;4962077;28;20202;-69
2023/02/18 05:05:12;;;;;;;40.05;32.58;;;5.10;99.90;;;;;;4972233;28;20308;-68
2023/02/18 05:07:41;;;;;;;43.90;30.65;;;5.10;99.90;;;;;;4969744;28;20229;-68
2023/02/18 05:10:09;;;;;;;39.67;31.17;;;5.10;99.90;;;;;;4969993;28;21214;-68
2023/02/18 05:12:36;;;;;;;36.95;29.13;;;5.00;99.90;;;;;;4966194;28;20244;-69
2023/02/18 05:15:03;;;;;;;38.70;30.08;;;4.90;99.90;;;;;;4968135;28;20257;-69
2023/02/18 05:17:30;;;;;;;42.47;32.80;;;4.90;99.90;;;;;;4969220;28;20301;-68
2023/02/18 05:19:58;;;;;;;39.25;31.80;;;4.80;99.90;;;;;;4970037;28;20329;-67
2023/02/18 05:22:26;;;;;;;47.65;36.70;;;4.80;99.90;;;;;;4970303;28;20723;-68
2023/02/18 05:24:52;;;;;;;45.13;33.95;;;4.80;99.90;;;;;;4969902;28;20310;-69
2023/02/18 05:27:19;;;;;;;49.15;35.95;;;4.70;99.90;;;;;;4965103;28;20229;-69
2023/02/18 05:29:46;;;;;;;41.97;31.90;;;4.70;99.90;;;;;;4970024;28;20360;-71
2023/02/18 05:32:13;;;;;;;44.60;33.88;;;4.70;99.90;;;;;;4967444;28;20284;-68
2023/02/18 05:34:40;;;;;;;41.80;32.97;;;4.70;99.90;;;;;;4965650;28;20304;-70
2023/02/18 05:37:09;;;;;;;40.05;30.10;;;4.70;99.90;;;;;;4967380;28;20240;-71
2023/02/18 05:39:36;;;;;;;37.10;28.23;;;4.70;99.90;;;;;;4968827;28;20256;-69
2023/02/18 05:42:03;;;;;;;36.63;29.10;;;4.60;99.90;;;;;;4970086;28;20332;-68
2023/02/18 05:44:31;;;;;;;36.47;27.77;;;4.60;99.90;;;;;;4968255;28;20323;-69
2023/02/18 05:46:58;;;;;;;37.47;28.60;;;4.60;99.90;;;;;;4971262;28;20873;-68
2023/02/18 05:49:26;;;;;;;35.20;27.65;;;4.60;99.90;;;;;;4967911;28;20313;-68
2023/02/18 05:51:53;;;;;;;40.65;29.67;;;4.50;99.90;;;;;;4968839;28;20296;-70
2023/02/18 05:54:21;;;;;;;37.60;29.10;;;4.50;99.90;;;;;;4970415;28;20321;-68
2023/02/18 05:56:49;;;;;;;45.25;34.35;;;4.50;99.90;;;;;;4967988;28;20754;-68
2023/02/18 05:59:16;;;;;;;37.67;30.85;;;4.60;99.90;;;;;;4965649;28;20308;-72
2023/02/18 06:01:43;;;;;;;45.10;35.13;;;4.50;99.90;;;;;;4966576;28;20312;-68
2023/02/18 06:04:11;;;;;;;41.08;31.67;;;4.50;99.90;;;;;;4969988;28;20297;-68
2023/02/18 06:06:38;;;;;;;41.08;32.58;;;4.50;99.90;;;;;;4969464;28;20296;-69
2023/02/18 06:09:06;;;;;;;42.97;34.28;;;4.50;99.90;;;;;;4968477;28;20312;-67
2023/02/18 06:11:34;;;;;;;37.10;30.80;;;4.50;99.90;;;;;;4967283;28;20304;-68
2023/02/18 06:14:01;;;;;;;39.40;30.52;;;4.50;99.90;;;;;;4963020;28;20714;-70
2023/02/18 06:16:29;;;;;;;40.85;31.95;;;4.60;99.90;;;;;;4969356;28;20280;-68
2023/02/18 06:18:56;;;;;;;38.28;30.52;;;4.60;99.90;;;;;;4966146;28;20324;-69
2023/02/18 06:21:23;;;;;;;38.40;30.65;;;4.50;99.90;;;;;;4964952;28;20289;-70
2023/02/18 06:23:50;;;;;;;40.28;31.60;;;4.50;99.90;;;;;;4965715;28;20649;-67
2023/02/18 06:26:18;;;;;;;42.17;31.48;;;4.50;99.90;;;;;;4968455;28;20284;-68
2023/02/18 06:28:46;;;;;;;39.70;30.65;;;4.40;99.90;;;;;;4965567;28;20300;-67
2023/02/18 06:31:13;;;;;;;42.72;31.08;;;4.40;99.90;;;;;;4965456;28;20304;-69
2023/02/18 06:33:40;;;;;;;41.90;32.92;;;4.40;99.90;;;;;;4966924;28;20666;-69
2023/02/18 06:36:10;;;;;;;38.72;31.25;;;4.40;99.90;;;;;;4965884;28;20205;-68
2023/02/18 06:38:40;;;;;;;35.75;28.88;;;4.40;99.90;;;;;;4966388;28;20734;-68
2023/02/18 06:41:08;;;;;;;38.13;30.73;;;4.50;99.90;;;;;;4970163;28;20280;-68
2023/02/18 06:43:35;;;;;;;39.15;30.02;;;4.50;99.90;;;;;;4967641;28;20248;-69
2023/02/18 06:46:04;;;;;;;38.90;29.52;;;4.60;99.90;;;;;;4965479;28;20292;-69
2023/02/18 06:48:32;;;;;;;37.08;28.35;;;4.60;99.90;;;;;;4968271;28;20309;-69
2023/02/18 06:50:59;;;;;;;34.67;28.15;;;4.70;99.90;;;;;;4965884;28;20305;-70
2023/02/18 06:53:26;;;;;;;34.42;27.25;;;4.70;99.90;;;;;;4973339;28;20318;-68
2023/02/18 06:55:53;;;;;;;36.33;26.52;;;4.70;99.90;;;;;;4964666;28;20731;-69
2023/02/18 06:58:22;;;;;;;32.72;26.17;;;4.70;99.90;;;;;;4968562;28;20232;-70
2023/02/18 07:00:49;;;;;;;37.28;28.70;;;4.70;99.90;;;;;;4973979;28;20198;-69
2023/02/18 07:03:17;;;;;;;39.17;30.65;;;4.80;99.90;;;;;;4968018;28;20316;-68
2023/02/18 07:05:44;;;;;;;39.72;29.65;;;4.80;99.90;;;;;;4969627;28;20663;-69
2023/02/18 07:08:11;;;;;;;40.72;33.08;;;4.80;99.90;;;;;;4976632;28;20317;-69
2023/02/18 07:10:39;;;;;;;36.75;29.55;;;4.90;99.90;;;;;;4972558;28;20308;-69
2023/02/18 07:13:06;;;;;;;40.55;30.27;;;5.00;99.90;;;;;;4969386;28;20225;-68
2023/02/18 07:15:33;;;;;;;39.25;31.42;;;5.10;99.90;;;;;;4969394;28;20297;-69
2023/02/18 07:18:00;;;;;;;39.97;32.78;;;5.20;99.90;;;;;;4972503;28;20292;-69
2023/02/18 07:20:29;;;;;;;43.88;34.38;;;5.30;99.90;;;;;;4974198;28;20240;-69
2023/02/18 07:22:56;;;;;;;40.03;32.53;;;5.50;99.90;;;;;;4976676;28;20629;-70
2023/02/18 07:25:24;;;;;;;43.38;33.38;;;5.50;99.90;;;;;;4967123;28;20253;-70
2023/02/18 07:27:51;;;;;;;42.15;32.95;;;5.50;99.90;;;;;;4971418;28;20660;-70
2023/02/18 07:30:18;;;;;;;43.33;32.92;;;5.50;99.90;;;;;;4972542;28;20316;-69
2023/02/18 07:32:45;;;;;;;40.47;30.60;;;5.60;99.90;;;;;;4970062;28;20234;-69
2023/02/18 07:35:15;;;;;;;35.88;29.25;;;5.70;99.90;;;;;;4969524;28;20244;-71
2023/02/18 07:37:46;;;;;;;37.70;29.80;;;5.90;99.90;;;;;;4969417;28;20663;-71
2023/02/18 07:40:15;;;;;;;44.25;34.67;;;6.30;99.90;;;;;;4971912;28;20324;-70
2023/02/18 07:42:42;;;;;;;40.70;32.58;;;6.60;99.90;;;;;;4977332;28;20280;-70
2023/02/18 07:45:10;;;;;;;37.05;29.60;;;6.80;99.90;;;;;;4974748;28;20242;-69
2023/02/18 07:47:37;;;;;;;37.05;30.08;;;6.80;99.90;;;;;;4969344;28;20240;-68
2023/02/18 07:50:06;;;;;;;37.40;29.52;;;6.90;99.90;;;;;;4970374;28;20329;-68
2023/02/18 07:52:33;;;;;;;32.15;25.88;;;7.00;99.90;;;;;;4970701;28;20233;-70
2023/02/18 07:55:02;;;;;;;34.28;26.90;;;7.00;99.90;;;;;;4971565;28;20821;-70
2023/02/18 07:57:29;;;;;;;39.72;29.00;;;7.30;99.90;;;;;;4969497;28;20206;-71
2023/02/18 07:59:56;;;;;;;35.25;27.10;;;7.70;99.90;;;;;;4970566;28;20320;-70
2023/02/18 08:02:24;;;;;;;35.60;28.20;;;7.90;99.90;;;;;;4968231;28;20732;-70
2023/02/18 08:04:51;;;;;;;35.78;28.70;;;7.90;99.90;;;;;;4973223;28;20313;-70
2023/02/18 08:07:20;;;;;;;35.85;28.98;;;7.90;99.90;;;;;;4968466;28;20735;-70
2023/02/18 08:09:49;;;;;;;40.10;30.92;;;8.10;99.90;;;;;;4973100;28;20319;-69
2023/02/18 08:12:17;;;;;;;34.08;27.33;;;8.20;99.90;;;;;;4960172;28;20194;-70
2023/02/18 08:14:45;;;;;;;32.72;27.15;;;8.60;99.90;;;;;;4964235;28;20252;-71
2023/02/18 08:17:14;;;;;;;30.50;26.45;;;9.00;99.90;;;;;;4967923;28;20198;-70
2023/02/18 08:19:41;;;;;;;37.97;29.10;;;9.50;99.90;;;;;;4970789;28;20229;-70
2023/02/18 08:22:09;;;;;;;36.35;29.80;;;9.60;99.90;;;;;;4970704;28;20205;-68
2023/02/18 08:24:36;;;;;;;36.53;29.75;;;9.80;99.90;;;;;;4970110;28;20244;-68
2023/02/18 08:27:03;;;;;;;41.05;32.38;;;9.90;99.90;;;;;;4972988;28;20767;-68
2023/02/18 08:29:32;;;;;;;38.35;30.63;;;10.20;99.90;;;;;;4971381;28;20340;-68
2023/02/18 08:31:58;;;;;;;39.78;30.83;;;10.10;99.90;;;;;;4969141;28;20313;-68
2023/02/18 08:34:26;;;;;;;38.95;31.70;;;10.10;99.90;;;;;;4973995;28;20644;-70
2023/02/18 08:36:53;;;;;;;38.85;30.15;;;10.30;99.90;;;;;;4972288;28;20292;-70
2023/02/18 08:39:20;;;;;;;36.17;29.67;;;10.40;99.90;;;;;;4970753;28;20308;-69
2023/02/18 08:41:47;;;;;;;36.58;31.05;;;10.30;99.90;;;;;;4969106;28;20200;-68
2023/02/18 08:44:14;;;;;;;37.75;30.63;;;10.10;99.90;;;;;;4971824;28;20304;-68
2023/02/18 08:46:42;;;;;;;35.95;29.38;;;10.00;99.90;;;;;;4970252;28;20320;-68
2023/02/18 08:49:09;;;;;;;41.65;28.75;;;10.40;99.90;;;;;;4968851;28;20309;-69
2023/02/18 08:51:36;;;;;;;35.92;28.38;;;10.50;99.90;;;;;;4971619;28;20304;-69
2023/02/18 08:54:04;;;;;;;39.05;30.67;;;10.80;99.90;;;;;;4971574;28;20248;-68
2023/02/18 08:56:32;;;;;;;35.83;28.55;;;10.80;99.90;;;;;;4970401;28;20230;-70
2023/02/18 08:58:59;;;;;;;36.90;30.40;;;11.00;99.90;;;;;;4970016;28;20644;-70
2023/02/18 09:01:27;;;;;;;34.88;29.33;;;11.40;99.90;;;;;;4977470;28;20196;-69
2023/02/18 09:03:55;;;;;;;37.22;29.60;;;11.90;99.90;;;;;;4971511;28;20295;-69
2023/02/18 09:06:22;;;;;;;38.17;31.30;;;12.00;99.90;;;;;;4973449;28;20285;-69
2023/02/18 09:08:49;;;;;;;39.08;31.35;;;12.30;99.90;;;;;;4968950;28;20308;-69
2023/02/18 09:11:18;;;;;;;38.95;32.50;;;12.70;99.90;;;;;;4974695;28;20304;-70
2023/02/18 09:13:45;;;;;;;36.05;30.83;;;12.60;99.90;;;;;;4974513;28;20669;-70
2023/02/18 09:16:14;;;;;;;35.63;30.15;;;12.80;99.90;;;;;;4969649;28;20288;-70
2023/02/18 09:18:41;;;;;;;38.55;30.98;;;13.10;99.90;;;;;;4970695;28;20225;-70
2023/02/18 09:21:13;;;;;;;36.08;29.08;;;13.60;99.90;;;;;;4975475;28;20193;-70
2023/02/18 09:23:40;;;;;;;39.20;31.25;;;14.10;99.90;;;;;;4976476;28;20304;-70
2023/02/18 09:26:10;;;;;;;39.75;31.55;;;14.30;99.90;;;;;;4974152;28;20232;-70
2023/02/18 09:28:37;;;;;;;38.78;31.45;;;14.10;99.90;;;;;;4970923;28;20845;-69
2023/02/18 09:31:06;;;;;;;39.10;29.98;;;13.60;99.90;;;;;;4969287;28;20240;-71
2023/02/18 09:33:35;;;;;;;36.50;30.50;;;13.30;99.90;;;;;;4964312;28;20618;-73
2023/02/18 09:36:02;;;;;;;37.03;29.25;;;13.10;99.90;;;;;;4965049;28;20296;-70
2023/02/18 09:38:30;;;;;;;35.33;29.27;;;12.60;99.90;;;;;;4970651;28;20300;-70
2023/02/18 09:40:59;;;;;;;34.25;28.85;;;11.90;99.90;;;;;;4969903;28;20281;-70
2023/02/18 09:43:32;;;;;;;35.33;28.80;;;11.40;99.90;;;;;;4970591;28;20240;-70
2023/02/18 09:46:02;;;;;;;36.03;28.77;;;11.00;99.90;;;;;;4969442;28;20352;-73
2023/02/18 09:48:32;;;;;;;34.35;29.08;;;10.90;99.90;;;;;;4977912;28;20253;-72
2023/02/18 09:51:00;;;;;;;38.33;31.05;;;11.30;99.90;;;;;;4962127;28;20312;-71
2023/02/18 09:53:27;;;;;;;37.97;30.95;;;11.60;99.90;;;;;;4965287;28;20699;-69
2023/02/18 09:55:57;;;;;;;35.55;30.02;;;12.20;99.90;;;;;;4969205;28;20300;-70
2023/02/18 09:58:28;;;;;;;37.42;30.92;;;12.90;99.90;;;;;;4966520;28;20232;-70
2023/02/18 10:01:03;;;;;;;38.13;30.80;;;13.10;99.90;;;;;;4963871;28;20281;-69
2023/02/18 10:03:31;;;;;;;36.55;28.35;;;13.20;99.90;;;;;;4969580;28;20824;-70
2023/02/18 10:06:02;;;;;;;42.47;31.88;;;13.70;99.90;;;;;;4968852;28;20220;-70
2023/02/18 10:08:33;;;;;;;36.58;30.13;;;14.10;99.90;;;;;;4976049;28;20323;-70
2023/02/18 10:11:02;;;;;;;35.80;29.30;;;14.20;99.90;;;;;;4991486;28;20326;-69
2023/02/18 10:13:33;;;;;;;39.50;30.48;;;13.70;99.90;;;;;;4978940;28;20373;-70
2023/02/18 10:16:01;;;;;;;34.55;28.83;;;13.00;99.90;;;;;;4969338;28;20750;-74
2023/02/18 10:18:30;;;;;;;37.20;29.95;;;12.20;99.90;;;;;;4964499;28;20234;-74
2023/02/18 10:21:05;;;;;;;34.90;29.20;;;12.40;99.90;;;;;;4971698;28;20711;-74
2023/02/18 10:23:34;;;;;;;32.47;27.17;;;12.40;99.90;;;;;;4966539;28;20295;-74
2023/02/18 10:26:06;;;;;;;37.03;29.70;;;12.50;99.90;;;;;;4972669;28;20280;-74
2023/02/18 10:28:35;;;;;;;36.83;29.65;;;13.10;99.90;;;;;;4966154;28;20221;-72
2023/02/18 10:31:08;;;;;;;33.72;28.65;;;13.30;99.90;;;;;;4962951;28;20222;-73
2023/02/18 10:33:43;;;;;;;35.53;29.92;;;13.20;99.90;;;;;;4969852;28;20252;-73
2023/02/18 10:36:23;;;;;;;39.25;31.33;;;13.30;99.90;;;;;;4974207;28;20600;-73
2023/02/18 10:39:06;;;;;;;35.97;29.95;;;13.50;99.90;;;;;;4969864;28;20221;-73
2023/02/18 10:41:45;;;;;;;39.50;31.92;;;13.80;99.90;;;;;;4966618;28;20740;-73
2023/02/18 10:44:19;;;;;;;39.47;30.85;;;14.20;99.90;;;;;;4968959;28;20249;-73
2023/02/18 10:46:52;;;;;;;41.25;32.40;;;14.30;99.90;;;;;;4965488;28;20300;-74
2023/02/18 10:49:50;;;;;;;38.45;30.48;;;14.80;99.90;;;;;;4965195;28;20315;-77
2023/02/18 10:52:19;;;;;;;35.90;29.63;;;15.10;99.90;;;;;;4966786;28;20320;-74
2023/02/18 10:54:58;;;;;;;39.50;32.42;;;15.10;99.90;;;;;;4960022;28;20320;-74
2023/02/18 10:57:27;;;;;;;39.63;31.75;;;15.20;99.90;;;;;;4966710;28;20280;-73
2023/02/18 10:59:57;;;;;;;36.05;29.85;;;15.10;99.90;;;;;;4968190;28;20249;-74
2023/02/18 11:02:29;;;;;;;38.03;29.90;;;15.00;99.90;;;;;;4967372;28;20254;-75
2023/02/18 11:04:58;;;;;;;36.45;29.55;;;15.50;99.90;;;;;;4967494;28;20218;-73
2023/02/18 11:07:29;;;;;;;34.88;29.15;;;15.60;99.90;;;;;;4964910;28;20206;-74
2023/02/18 11:09:59;;;;;;;36.78;29.08;;;15.20;99.90;;;;;;4967303;28;20312;-72
2023/02/18 11:12:30;;;;;;;39.92;32.70;;;14.80;99.90;;;;;;4966417;28;20301;-74
2023/02/18 11:15:16;;;;;;;36.05;29.98;;;14.50;99.90;;;;;;4970179;28;20228;-76
2023/02/18 11:17:45;;;;;;;35.90;29.52;;;14.30;99.90;;;;;;4963982;28;20221;-76
2023/02/18 11:20:28;;;;;;;38.88;30.70;;;14.20;99.90;;;;;;4967369;28;20707;-76
2023/02/18 11:22:59;;;;;;;37.50;31.33;;;14.20;99.90;;;;;;4963351;28;20285;-75
2023/02/18 11:25:31;;;;;;;39.35;30.60;;;14.30;99.90;;;;;;4989852;28;20296;-75
2023/02/18 11:28:03;;;;;;;38.22;31.20;;;14.50;99.90;;;;;;4982734;28;20225;-75
2023/02/18 11:30:35;;;;;;;33.35;27.63;;;14.40;99.90;;;;;;4969852;28;20229;-75
2023/02/18 11:33:07;;;;;;;35.85;30.02;;;14.20;99.90;;;;;;4965854;28;20305;-73
2023/02/18 11:35:35;;;;;;;37.08;29.17;;;13.90;99.90;;;;;;4963469;28;20206;-73
2023/02/18 11:38:14;;;;;;;39.08;30.50;;;13.60;99.90;;;;;;4968976;28;20667;-73
2023/02/18 11:40:41;;;;;;;37.38;29.38;;;13.50;99.90;;;;;;4968673;28;20248;-72
2023/02/18 11:43:14;;;;;;;39.15;31.35;;;13.50;99.90;;;;;;4970170;28;20280;-73
2023/02/18 11:45:41;;;;;;;39.10;30.88;;;13.10;99.90;;;;;;4967179;28;20297;-73
2023/02/18 11:48:16;;;;;;;36.28;29.48;;;12.80;99.90;;;;;;4971038;28;20220;-73
2023/02/18 11:50:44;;;;;;;35.35;28.45;;;12.80;99.90;;;;;;4972957;28;20729;-72
2023/02/18 11:53:28;;;;;;;36.10;28.55;;;12.80;99.90;;;;;;4967550;28;20315;-73
2023/02/18 11:55:57;;;;;;;39.13;30.30;;;13.10;99.90;;;;;;4974379;28;20638;-73
2023/02/18 11:58:27;;;;;;;36.67;29.95;;;13.40;99.90;;;;;;4979409;28;20653;-73
2023/02/18 12:00:59;;;;;;;35.67;28.88;;;13.50;99.90;;;;;;4976215;28;20240;-75
2023/02/18 12:03:33;;;;;;;38.97;30.55;;;13.60;99.90;;;;;;4977380;28;20241;-74
2023/02/18 12:06:04;;;;;;;40.15;30.58;;;13.60;99.90;;;;;;4968465;28;20316;-73
2023/02/18 12:08:37;;;;;;;38.50;30.77;;;13.80;99.90;;;;;;4966324;28;20587;-73
2023/02/18 12:11:09;;;;;;;44.63;33.88;;;13.80;99.90;;;;;;4969028;28;20300;-73
2023/02/18 12:13:48;;;;;;;41.88;32.40;;;13.60;99.90;;;;;;4966702;28;20260;-73
2023/02/18 12:16:26;;;;;;;38.28;29.35;;;13.30;99.90;;;;;;4968269;28;20614;-72
2023/02/18 12:19:13;;;;;;;41.40;30.85;;;13.10;99.90;;;;;;4967173;28;20699;-73
2023/02/18 12:21:54;;;;;;;39.13;30.38;;;13.20;99.90;;;;;;4966140;28;20248;-72
2023/02/18 12:24:39;;;;;;;43.08;32.65;;;12.90;99.90;;;;;;4967820;28;20674;-72
2023/02/18 12:27:14;;;;;;;36.97;30.42;;;12.70;99.90;;;;;;4967050;28;20202;-73
2023/02/18 12:29:55;;;;;;;33.65;27.98;;;12.50;99.90;;;;;;4968878;28;20235;-73
2023/02/18 12:32:33;;;;;;;38.25;30.60;;;12.60;99.90;;;;;;4966330;28;20308;-73
2023/02/18 12:35:27;;;;;;;41.03;31.08;;;12.50;99.90;;;;;;4969572;28;20320;-74
2023/02/18 12:38:14;;;;;;;34.63;28.85;;;12.50;99.90;;;;;;4967210;28;20236;-74
2023/02/18 12:40:58;;;;;;;43.70;32.33;;;12.80;99.90;;;;;;4970073;28;20667;-74
2023/02/18 12:43:38;;;;;;;37.95;30.48;;;13.20;99.90;;;;;;4970234;28;20293;-73
2023/02/18 12:46:33;;;;;;;39.90;30.65;;;13.20;99.90;;;;;;4970267;28;20296;-73
2023/02/18 12:49:17;;;;;;;39.15;32.42;;;13.20;99.90;;;;;;4969937;28;20743;-73
2023/02/18 12:51:59;;;;;;;34.42;29.80;;;13.40;99.90;;;;;;4967367;28;20304;-74